Terminal Aerodrome Forecast
Issued by NWS Mt. Holly, NJ

Current Version | Previous Version | Text Only | Print | Product List | Glossary On
Versions: 1 2 3 4 5 6 7 8 9 10 11 12 13 14
863
FTUS41 KPHI 221737
TAFILG
TAF
KILG 221737Z 2218/2318 33010G18KT P6SM FEW070 BKN250
     FM230200 34004KT P6SM FEW070 SCT250
     FM231400 34006KT P6SM SKC=

USA.gov is the U.S. government's official web portal to all federal, state and local government web resources and services.